Time;durP1;ratioP1;P1;durP2;ratioP2;P2;SDS_P1;SDS_P2;PMS_P1;PMS_P2;Temp;Humidity;BMP_temperature;BMP_pressure;BME280_temperature;BME280_humidity;BME280_pressure;Samples;Min_cycle;Max_cycle;Signal;HPM_P1;HPM_P2
2022/05/24 00:01:13;;;;;;;10.65;6.32;;;14.70;99.90;;;;;;5042005;28;20072;-72
2022/05/24 00:03:39;;;;;;;9.38;5.85;;;14.60;99.90;;;;;;5053097;28;20105;-73
2022/05/24 00:06:05;;;;;;;10.13;6.13;;;14.50;99.90;;;;;;5052267;28;20044;-74
2022/05/24 00:08:30;;;;;;;13.55;7.25;;;14.50;99.90;;;;;;5052179;28;20033;-73
2022/05/24 00:10:56;;;;;;;11.57;7.00;;;14.50;99.90;;;;;;5034398;28;20071;-73
2022/05/24 00:13:22;;;;;;;12.90;6.97;;;14.50;99.90;;;;;;5050871;28;20405;-72
2022/05/24 00:15:48;;;;;;;11.23;6.65;;;14.50;99.90;;;;;;5051190;28;20079;-72
2022/05/24 00:18:20;;;;;;;11.15;7.00;;;14.40;99.90;;;;;;5053236;28;20094;-72
2022/05/24 00:20:51;;;;;;;10.50;6.40;;;14.40;99.90;;;;;;5050794;28;20150;-72
2022/05/24 00:23:18;;;;;;;10.68;6.97;;;14.40;99.90;;;;;;5031994;28;20505;-72
2022/05/24 00:25:49;;;;;;;9.95;6.57;;;14.40;99.90;;;;;;5033007;28;20095;-73
2022/05/24 00:28:16;;;;;;;9.80;6.03;;;14.30;99.90;;;;;;5018691;28;20037;-72
2022/05/24 00:30:44;;;;;;;9.38;5.88;;;14.40;99.90;;;;;;5033116;28;20394;-72
2022/05/24 00:33:10;;;;;;;9.55;5.63;;;14.40;99.90;;;;;;5031926;28;20056;-72
2022/05/24 00:35:36;;;;;;;9.55;5.22;;;14.20;99.90;;;;;;5034597;28;20045;-72
2022/05/24 00:38:03;;;;;;;10.93;4.82;;;14.30;99.90;;;;;;5032884;28;20045;-72
2022/05/24 00:40:39;;;;;;;8.77;4.88;;;14.30;99.90;;;;;;5050742;28;20037;-73
2022/05/24 00:43:11;;;;;;;8.90;4.38;;;14.30;99.90;;;;;;5052809;28;20037;-72
2022/05/24 00:45:45;;;;;;;9.73;5.10;;;14.30;99.90;;;;;;5051810;28;20067;-72
2022/05/24 00:48:22;;;;;;;10.68;4.50;;;14.30;99.90;;;;;;5052980;28;20072;-72
2022/05/24 00:50:49;;;;;;;9.52;4.60;;;14.30;99.90;;;;;;5052699;28;20043;-73
2022/05/24 00:53:37;;;;;;;9.90;5.60;;;14.20;99.90;;;;;;5051316;28;20108;-72
2022/05/24 00:56:24;;;;;;;11.30;5.07;;;14.10;99.90;;;;;;5049604;28;20120;-72
2022/05/24 00:59:02;;;;;;;9.38;5.05;;;14.20;99.90;;;;;;5050538;28;20095;-72
2022/05/24 01:01:34;;;;;;;10.55;5.00;;;14.20;99.90;;;;;;5051544;28;20497;-72
2022/05/24 01:04:00;;;;;;;11.57;5.40;;;14.20;99.90;;;;;;5052563;28;20124;-72
2022/05/24 01:06:25;;;;;;;10.02;5.47;;;14.10;99.90;;;;;;5051712;28;20116;-72
2022/05/24 01:08:54;;;;;;;8.07;5.10;;;14.20;99.90;;;;;;5051545;28;20076;-73
2022/05/24 01:11:22;;;;;;;9.95;4.72;;;14.30;99.90;;;;;;5052628;28;20077;-72
2022/05/24 01:13:50;;;;;;;7.35;4.93;;;14.40;99.90;;;;;;5054059;28;20119;-73
2022/05/24 01:16:16;;;;;;;10.88;5.65;;;14.40;99.90;;;;;;5055986;28;20429;-72
2022/05/24 01:18:41;;;;;;;10.65;5.30;;;14.30;99.90;;;;;;5056053;28;20128;-72
2022/05/24 01:21:11;;;;;;;8.55;5.22;;;14.40;99.90;;;;;;5054958;28;20116;-73
2022/05/24 01:23:51;;;;;;;9.70;5.25;;;14.30;99.90;;;;;;5056166;28;20037;-73
2022/05/24 01:26:45;;;;;;;11.55;6.22;;;14.30;99.90;;;;;;5052614;28;20037;-72
2022/05/24 01:29:12;;;;;;;10.18;5.15;;;14.40;99.90;;;;;;5055978;28;20405;-72
2022/05/24 01:37:09;;;;;;;9.35;4.60;;;14.30;99.90;;;;;;5053643;28;20037;-72
2022/05/24 01:39:35;;;;;;;8.18;4.68;;;14.50;99.90;;;;;;5050214;28;20041;-72
2022/05/24 01:42:02;;;;;;;7.00;4.20;;;14.50;99.90;;;;;;5044722;28;20037;-72
2022/05/24 01:44:44;;;;;;;7.88;4.30;;;14.50;99.90;;;;;;5043707;28;20033;-72
2022/05/24 01:47:11;;;;;;;9.00;4.43;;;14.40;99.90;;;;;;5051143;28;20075;-72
2022/05/24 01:49:41;;;;;;;9.57;4.20;;;14.50;99.90;;;;;;5027679;28;20044;-72
2022/05/24 01:52:19;;;;;;;7.82;4.20;;;14.50;99.90;;;;;;5032197;28;20041;-72
2022/05/24 01:54:50;;;;;;;8.27;4.07;;;14.40;99.90;;;;;;5050852;28;20086;-71
2022/05/24 01:57:22;;;;;;;8.38;4.47;;;14.40;99.90;;;;;;5055610;28;20060;-72
2022/05/24 01:59:50;;;;;;;8.82;4.13;;;14.30;99.90;;;;;;5043228;28;20037;-72
2022/05/24 02:02:16;;;;;;;8.32;3.65;;;14.40;99.90;;;;;;5026933;28;20592;-72
2022/05/24 02:04:43;;;;;;;8.73;4.78;;;14.40;99.90;;;;;;5035227;28;20045;-73
2022/05/24 02:07:12;;;;;;;7.53;3.80;;;14.40;99.90;;;;;;5027667;28;20124;-73
2022/05/24 02:09:44;;;;;;;9.20;4.40;;;14.30;99.90;;;;;;5054197;28;20043;-73
2022/05/24 02:12:16;;;;;;;;;;;14.40;99.90;;;;;;5032107;28;20127;-73
2022/05/24 02:14:58;;;;;;;7.05;4.00;;;14.40;99.90;;;;;;5027291;28;19960;-73
2022/05/24 02:17:42;;;;;;;7.07;4.07;;;14.30;99.90;;;;;;5028555;28;20676;-73
2022/05/24 02:20:13;;;;;;;9.32;4.50;;;14.40;99.90;;;;;;5030101;28;20088;-73
2022/05/24 02:22:40;;;;;;;8.88;4.70;;;14.40;99.90;;;;;;5028824;28;20094;-73
2022/05/24 02:25:28;;;;;;;8.02;5.20;;;14.50;99.90;;;;;;5026440;28;20036;-73
2022/05/24 02:27:53;;;;;;;9.93;5.65;;;14.40;99.90;;;;;;5027996;28;20657;-73
2022/05/24 02:30:24;;;;;;;10.13;5.80;;;14.40;99.90;;;;;;5026534;28;20032;-73
2022/05/24 02:32:50;;;;;;;13.32;6.43;;;14.40;99.90;;;;;;5026530;28;20045;-73
2022/05/24 02:35:16;;;;;;;10.23;7.45;;;14.40;99.90;;;;;;5037240;28;20045;-73
2022/05/24 02:37:42;;;;;;;11.65;7.68;;;14.40;99.90;;;;;;5047037;28;20041;-73
2022/05/24 02:42:53;;;;;;;11.52;7.63;;;14.40;99.90;;;;;;5027732;28;20049;-73
2022/05/24 02:45:20;;;;;;;12.88;8.95;;;14.50;99.90;;;;;;5025808;28;20033;-73
2022/05/24 02:47:45;;;;;;;13.93;9.35;;;14.50;99.90;;;;;;5035881;28;20040;-73
2022/05/24 02:50:11;;;;;;;15.43;9.85;;;14.40;99.90;;;;;;5030827;28;20037;-73
2022/05/24 02:52:40;;;;;;;12.27;8.63;;;14.40;99.90;;;;;;5024454;28;20045;-74
2022/05/24 02:55:11;;;;;;;14.75;9.88;;;14.40;99.90;;;;;;5027323;28;20045;-74
2022/05/24 02:57:37;;;;;;;14.65;9.68;;;14.50;99.90;;;;;;5026830;28;20508;-73
2022/05/24 03:00:10;;;;;;;13.43;9.85;;;14.40;99.90;;;;;;5009002;28;20049;-74
2022/05/24 03:02:36;;;;;;;13.65;9.57;;;14.40;99.90;;;;;;5025386;28;20188;-74
2022/05/24 03:05:02;;;;;;;14.68;10.60;;;14.40;99.90;;;;;;5025256;28;20049;-73
2022/05/24 03:10:11;;;;;;;15.63;11.52;;;14.30;99.90;;;;;;5052159;28;20041;-73
2022/05/24 03:15:21;;;;;;;15.98;11.98;;;14.40;99.90;;;;;;5036556;28;20041;-74
2022/05/24 03:17:47;;;;;;;19.05;13.40;;;14.40;99.90;;;;;;5026695;28;20079;-73
2022/05/24 03:20:12;;;;;;;18.73;14.77;;;14.40;99.90;;;;;;5014239;28;20114;-73
2022/05/24 03:22:38;;;;;;;19.38;14.45;;;14.40;99.90;;;;;;5027913;28;20115;-74
2022/05/24 03:25:04;;;;;;;18.67;14.40;;;14.40;99.90;;;;;;5024854;28;20742;-73
2022/05/24 03:27:30;;;;;;;19.52;15.85;;;14.50;99.90;;;;;;5032356;28;20036;-74
2022/05/24 03:29:55;;;;;;;20.88;16.30;;;14.40;99.90;;;;;;5036248;28;20044;-73
2022/05/24 03:32:21;;;;;;;21.80;15.23;;;14.40;99.90;;;;;;5026692;28;20110;-74
2022/05/24 03:34:46;;;;;;;21.52;16.65;;;14.50;99.90;;;;;;5016057;28;20045;-73
2022/05/24 03:37:12;;;;;;;23.10;17.48;;;14.50;99.90;;;;;;5010773;28;20050;-74
2022/05/24 03:39:38;;;;;;;23.23;16.67;;;14.60;99.90;;;;;;5043765;28;20037;-74
2022/05/24 03:42:04;;;;;;;22.77;17.52;;;14.50;99.90;;;;;;5040346;28;20041;-74
2022/05/24 03:44:30;;;;;;;23.77;18.20;;;14.60;99.90;;;;;;5024564;28;20416;-74
2022/05/24 03:46:56;;;;;;;23.10;17.23;;;14.50;99.90;;;;;;5024802;28;20033;-74
2022/05/24 03:49:22;;;;;;;22.17;18.05;;;14.60;99.90;;;;;;5026209;28;20097;-74
2022/05/24 03:51:48;;;;;;;23.67;19.08;;;14.60;99.90;;;;;;5030171;28;20044;-74
2022/05/24 03:54:13;;;;;;;25.77;19.63;;;14.60;99.90;;;;;;5027646;28;20094;-74
2022/05/24 03:57:59;;;;;;;25.48;19.80;;;14.60;99.90;;;;;;5026660;28;20065;-74
2022/05/24 03:59:26;;;;;;;24.88;18.90;;;14.60;99.90;;;;;;5025415;28;21549;-74
2022/05/24 04:01:51;;;;;;;23.85;19.30;;;14.60;99.90;;;;;;5023935;28;20061;-74
2022/05/24 04:04:17;;;;;;;25.70;19.85;;;14.60;99.90;;;;;;5024452;28;20057;-74
2022/05/24 04:06:42;;;;;;;22.85;18.50;;;14.60;99.90;;;;;;5028958;28;20409;-74
2022/05/24 04:09:08;;;;;;;21.63;18.45;;;14.60;99.90;;;;;;5010840;28;20235;-74
2022/05/24 04:11:34;;;;;;;22.92;19.02;;;14.70;99.90;;;;;;5024202;28;20116;-74
2022/05/24 04:14:00;;;;;;;22.40;19.38;;;14.70;99.90;;;;;;5026769;28;20065;-74
2022/05/24 04:16:26;;;;;;;23.88;19.02;;;14.70;99.90;;;;;;5009946;28;20465;-74
2022/05/24 04:18:51;;;;;;;22.27;17.85;;;14.60;99.90;;;;;;5025302;28;20471;-74
2022/05/24 04:21:17;;;;;;;25.35;18.67;;;14.60;99.90;;;;;;5028784;28;20045;-74
2022/05/24 04:23:42;;;;;;;23.70;17.75;;;14.60;99.90;;;;;;5025076;28;20035;-74
2022/05/24 04:26:08;;;;;;;21.70;16.85;;;14.60;99.90;;;;;;5026959;28;20124;-74
2022/05/24 04:28:34;;;;;;;22.88;16.95;;;14.70;99.90;;;;;;5028527;28;20048;-74
2022/05/24 04:31:00;;;;;;;22.25;16.98;;;14.70;99.90;;;;;;5023971;28;20075;-74
2022/05/24 04:33:25;;;;;;;22.80;18.23;;;14.70;99.90;;;;;;5022798;28;20508;-74
2022/05/24 04:35:51;;;;;;;20.35;16.77;;;14.70;99.90;;;;;;5030305;28;20162;-74
2022/05/24 04:38:17;;;;;;;21.23;16.90;;;14.60;99.90;;;;;;5023748;28;20124;-74
2022/05/24 04:43:27;;;;;;;23.38;16.67;;;14.70;99.90;;;;;;5034086;28;20504;-74
2022/05/24 04:45:53;;;;;;;21.58;15.55;;;14.70;99.90;;;;;;5022857;28;20374;-74
2022/05/24 04:48:20;;;;;;;20.55;16.48;;;14.80;99.90;;;;;;5028215;28;20044;-74
2022/05/24 04:50:45;;;;;;;20.00;16.08;;;14.70;99.90;;;;;;5030829;28;20041;-74
2022/05/24 04:53:11;;;;;;;19.67;16.52;;;14.70;99.90;;;;;;5032436;28;20142;-74
2022/05/24 04:55:36;;;;;;;21.48;17.38;;;14.70;99.90;;;;;;5049732;28;20541;-74
2022/05/24 04:58:02;;;;;;;21.58;16.65;;;14.80;99.90;;;;;;5029418;28;20037;-73
2022/05/24 05:00:28;;;;;;;19.67;16.20;;;14.70;99.90;;;;;;5031003;28;20044;-74
2022/05/24 05:02:53;;;;;;;18.60;15.32;;;14.70;99.90;;;;;;5027579;28;21867;-74
2022/05/24 05:05:19;;;;;;;19.05;14.75;;;14.60;99.90;;;;;;5028235;28;20045;-74
2022/05/24 05:07:45;;;;;;;20.85;14.10;;;14.60;99.90;;;;;;5028801;28;20041;-74
2022/05/24 05:10:12;;;;;;;18.63;13.00;;;14.80;99.90;;;;;;5028355;28;20071;-74
2022/05/24 05:12:38;;;;;;;18.35;14.18;;;14.80;99.90;;;;;;5029483;28;20040;-74
2022/05/24 05:15:05;;;;;;;18.13;14.15;;;14.80;99.90;;;;;;5029152;28;20083;-74
2022/05/24 05:17:31;;;;;;;19.95;14.50;;;14.90;99.90;;;;;;5029992;28;20120;-74
2022/05/24 05:19:59;;;;;;;18.63;13.77;;;14.90;99.90;;;;;;5027695;28;20055;-74
2022/05/24 05:22:25;;;;;;;18.73;13.82;;;15.00;99.90;;;;;;5028262;28;20518;-74
2022/05/24 05:24:51;;;;;;;22.33;15.15;;;15.00;99.90;;;;;;5028676;28;20037;-74
2022/05/24 05:27:18;;;;;;;18.02;15.05;;;15.00;99.90;;;;;;5028553;28;20489;-74
2022/05/24 05:32:30;;;;;;;20.73;16.33;;;15.00;99.90;;;;;;5028209;28;20041;-73
2022/05/24 05:34:56;;;;;;;24.50;18.70;;;15.00;99.90;;;;;;5032171;28;20081;-73
2022/05/24 05:37:22;;;;;;;27.50;17.88;;;15.10;99.90;;;;;;5034192;28;20048;-73
2022/05/24 05:39:48;;;;;;;24.48;18.58;;;15.10;99.90;;;;;;5026951;28;20040;-73
2022/05/24 05:42:14;;;;;;;24.42;18.15;;;15.00;99.90;;;;;;5016453;28;20091;-74
2022/05/24 05:44:40;;;;;;;23.15;17.27;;;15.00;99.90;;;;;;5032781;28;20032;-74
2022/05/24 05:47:06;;;;;;;23.48;15.70;;;14.90;99.90;;;;;;5029210;28;20056;-73
2022/05/24 05:49:32;;;;;;;24.65;16.13;;;14.80;99.90;;;;;;5026982;28;20060;-73
2022/05/24 05:51:57;;;;;;;21.90;14.70;;;14.80;99.90;;;;;;5028694;28;20651;-73
2022/05/24 05:54:24;;;;;;;25.60;17.80;;;14.90;99.90;;;;;;5025686;28;20048;-74
2022/05/24 05:56:50;;;;;;;24.77;17.67;;;14.70;99.90;;;;;;5038186;28;20446;-74
2022/05/24 05:59:15;;;;;;;21.85;16.67;;;14.70;99.90;;;;;;5047979;28;20163;-73
2022/05/24 06:01:42;;;;;;;26.73;17.42;;;14.70;99.90;;;;;;5029326;28;20056;-73
2022/05/24 06:04:09;;;;;;;25.45;17.63;;;14.70;99.90;;;;;;5027297;28;20124;-74
2022/05/24 06:06:39;;;;;;;25.15;17.30;;;14.60;99.90;;;;;;5005497;28;21414;-74
2022/05/24 06:09:06;;;;;;;22.17;16.73;;;14.70;99.90;;;;;;5027246;28;20045;-74
2022/05/24 06:11:31;;;;;;;21.45;15.00;;;14.70;99.90;;;;;;5028321;28;20038;-74
2022/05/24 06:13:57;;;;;;;25.70;16.40;;;14.70;99.90;;;;;;5009515;28;20045;-74
2022/05/24 06:16:22;;;;;;;28.05;16.15;;;14.80;99.90;;;;;;5029966;28;20045;-73
2022/05/24 06:18:48;;;;;;;20.33;14.48;;;14.80;99.90;;;;;;5038398;28;20037;-74
2022/05/24 06:21:14;;;;;;;20.38;15.43;;;14.90;99.90;;;;;;5047461;28;20095;-74
2022/05/24 06:23:40;;;;;;;21.55;15.00;;;14.80;99.90;;;;;;5042192;28;20041;-73
2022/05/24 06:26:05;;;;;;;20.20;14.00;;;14.80;99.90;;;;;;5034933;28;20037;-74
2022/05/24 06:28:31;;;;;;;21.33;13.85;;;15.00;99.90;;;;;;5046863;28;20374;-73
2022/05/24 06:30:56;;;;;;;20.55;14.05;;;15.00;99.90;;;;;;5054199;28;20045;-74
2022/05/24 06:33:22;;;;;;;20.50;13.52;;;14.90;99.90;;;;;;5053891;28;20500;-73
2022/05/24 06:35:48;;;;;;;20.67;13.50;;;14.90;99.90;;;;;;5034916;28;20091;-73
2022/05/24 06:38:15;;;;;;;21.88;12.73;;;15.00;99.90;;;;;;5047426;28;20052;-73
2022/05/24 06:40:41;;;;;;;19.63;11.70;;;15.00;99.90;;;;;;5049494;28;20493;-73
2022/05/24 06:43:06;;;;;;;21.85;13.18;;;15.00;99.90;;;;;;5053820;28;20041;-73
2022/05/24 06:45:32;;;;;;;19.95;13.50;;;15.00;99.90;;;;;;5050669;28;20401;-73
2022/05/24 06:47:58;;;;;;;19.70;12.02;;;15.00;99.90;;;;;;5053213;28;20393;-73
2022/05/24 06:50:24;;;;;;;17.30;12.57;;;14.90;99.90;;;;;;5050535;28;20442;-73
2022/05/24 06:52:57;;;;;;;16.80;11.65;;;14.90;99.90;;;;;;5051097;28;20120;-74
2022/05/24 06:55:23;;;;;;;19.02;13.68;;;15.00;99.90;;;;;;5035146;28;20481;-74
2022/05/24 06:57:50;;;;;;;18.55;12.02;;;14.90;99.90;;;;;;5031699;28;20029;-73
2022/05/24 07:03:13;;;;;;;17.85;11.95;;;14.90;99.90;;;;;;5052169;28;20057;-73
2022/05/24 07:05:39;;;;;;;19.02;11.30;;;15.00;99.90;;;;;;5052290;28;20080;-74
2022/05/24 07:08:05;;;;;;;20.15;11.70;;;15.10;99.90;;;;;;5050228;28;20037;-73
2022/05/24 07:10:34;;;;;;;16.88;10.45;;;15.10;99.90;;;;;;5051075;28;20032;-74
2022/05/24 07:13:02;;;;;;;18.45;10.45;;;15.10;99.90;;;;;;5048257;28;20049;-78
2022/05/24 07:15:28;;;;;;;18.40;10.82;;;15.10;99.90;;;;;;5044518;28;20041;-76
2022/05/24 07:17:54;;;;;;;16.15;10.85;;;15.10;99.90;;;;;;5041263;28;20195;-69
2022/05/24 07:20:20;;;;;;;21.20;11.38;;;15.10;99.90;;;;;;5034106;28;20041;-68
2022/05/24 07:22:48;;;;;;;16.92;11.13;;;15.00;99.90;;;;;;5052005;28;20397;-74
2022/05/24 07:25:14;;;;;;;14.60;9.30;;;15.00;99.90;;;;;;5050948;28;20032;-74
2022/05/24 07:27:40;;;;;;;15.85;10.95;;;15.00;99.90;;;;;;5050661;28;20049;-74
2022/05/24 07:30:06;;;;;;;17.23;11.27;;;15.00;99.90;;;;;;5029116;28;20451;-74
2022/05/24 07:32:32;;;;;;;15.88;10.80;;;15.00;99.90;;;;;;5050228;28;20032;-74
2022/05/24 07:34:59;;;;;;;18.38;11.20;;;14.90;99.90;;;;;;5052226;28;20505;-74
2022/05/24 07:37:25;;;;;;;18.90;10.90;;;14.90;99.90;;;;;;5052151;28;20037;-73
2022/05/24 07:45:47;;;;;;;14.40;9.50;;;14.90;99.90;;;;;;5051076;28;20049;-73
2022/05/24 07:48:05;;;;;;;16.55;10.73;;;14.90;99.90;;;;;;5033676;28;20475;-73
2022/05/24 07:50:31;;;;;;;17.92;10.35;;;14.90;99.90;;;;;;5053061;28;20389;-73
2022/05/24 07:52:56;;;;;;;15.25;9.60;;;14.90;99.90;;;;;;5051505;28;20036;-73
2022/05/24 07:55:22;;;;;;;14.85;9.90;;;14.90;99.90;;;;;;5050539;28;20486;-73
2022/05/24 07:57:48;;;;;;;16.40;10.05;;;14.90;99.90;;;;;;5052614;28;20504;-74
2022/05/24 08:00:14;;;;;;;16.52;10.38;;;14.90;99.90;;;;;;5039383;28;20124;-73
2022/05/24 08:02:40;;;;;;;16.05;9.65;;;14.80;99.90;;;;;;5033462;28;20897;-73
2022/05/24 08:05:07;;;;;;;15.65;9.35;;;14.90;99.90;;;;;;5050577;28;20069;-73
2022/05/24 08:07:32;;;;;;;15.07;9.73;;;14.90;99.90;;;;;;5052880;28;20037;-73
2022/05/24 08:09:58;;;;;;;20.52;11.27;;;14.90;99.90;;;;;;5050300;28;20047;-73
2022/05/24 08:12:24;;;;;;;16.30;9.85;;;14.90;99.90;;;;;;5050209;28;20123;-73
2022/05/24 08:14:49;;;;;;;18.13;10.93;;;15.00;99.90;;;;;;5036537;28;20040;-74
2022/05/24 08:17:15;;;;;;;17.30;10.00;;;15.00;99.90;;;;;;5052208;28;20036;-74
2022/05/24 08:19:41;;;;;;;16.55;11.10;;;15.00;99.90;;;;;;5040939;28;20095;-74
2022/05/24 08:22:07;;;;;;;17.33;9.93;;;14.90;99.90;;;;;;5032677;28;20072;-73
2022/05/24 08:24:33;;;;;;;18.73;10.27;;;15.00;99.90;;;;;;5054382;28;20069;-73
2022/05/24 08:26:59;;;;;;;16.27;11.00;;;15.10;99.90;;;;;;5055975;28;20071;-73
2022/05/24 08:29:25;;;;;;;15.85;10.48;;;15.30;99.90;;;;;;5047055;28;20045;-73
2022/05/24 08:31:50;;;;;;;17.52;10.95;;;15.30;99.90;;;;;;5056560;28;20037;-73
2022/05/24 08:34:16;;;;;;;14.68;9.85;;;15.40;99.90;;;;;;5052835;28;20489;-74
2022/05/24 08:36:42;;;;;;;17.27;10.77;;;15.40;99.90;;;;;;5056200;28;20078;-75
2022/05/24 08:39:07;;;;;;;16.60;8.98;;;15.50;99.90;;;;;;5056272;28;20041;-73
2022/05/24 08:42:03;;;;;;;13.52;9.60;;;15.70;99.90;;;;;;5054198;28;20044;-74
2022/05/24 08:50:33;;;;;;;15.23;8.45;;;16.20;99.90;;;;;;5053960;28;20123;-74
2022/05/24 08:53:08;;;;;;;14.73;8.38;;;16.30;99.90;;;;;;5049700;28;20037;-74
2022/05/24 08:55:37;;;;;;;16.92;9.20;;;16.30;99.90;;;;;;5037807;28;20072;-74
2022/05/24 08:58:03;;;;;;;12.00;7.88;;;16.20;99.90;;;;;;5027789;28;20067;-74
2022/05/24 09:00:33;;;;;;;17.25;9.38;;;16.20;99.90;;;;;;5056154;28;20585;-74
2022/05/24 09:02:59;;;;;;;14.45;8.27;;;16.10;99.90;;;;;;5053665;28;20059;-74
2022/05/24 09:05:33;;;;;;;16.02;8.60;;;16.00;99.90;;;;;;5036338;28;20120;-74
2022/05/24 09:07:59;;;;;;;15.27;8.60;;;15.90;99.90;;;;;;5050605;28;20132;-74
2022/05/24 09:10:33;;;;;;;12.18;8.00;;;15.80;99.90;;;;;;5054332;28;20131;-74
2022/05/24 09:13:08;;;;;;;13.18;7.43;;;15.70;99.90;;;;;;5049010;28;20040;-74
2022/05/24 09:15:36;;;;;;;10.15;6.35;;;15.70;99.90;;;;;;5037247;28;20136;-74
2022/05/24 09:18:17;;;;;;;13.98;6.22;;;15.70;99.90;;;;;;5048789;28;20040;-74
2022/05/24 09:20:44;;;;;;;10.27;5.55;;;15.70;99.90;;;;;;5050390;28;20048;-74
2022/05/24 09:23:41;;;;;;;14.45;5.78;;;15.70;99.90;;;;;;5035393;28;20103;-73
2022/05/24 09:26:09;;;;;;;10.43;5.25;;;15.70;99.90;;;;;;5050603;28;20139;-74
2022/05/24 09:28:42;;;;;;;8.90;5.80;;;15.70;99.90;;;;;;5053773;28;20070;-73
2022/05/24 09:31:13;;;;;;;9.40;5.30;;;15.80;99.90;;;;;;5055179;28;20124;-74
2022/05/24 09:33:41;;;;;;;7.68;4.47;;;16.00;99.90;;;;;;5051402;28;20118;-74
2022/05/24 09:36:07;;;;;;;9.25;4.53;;;16.20;99.90;;;;;;5044762;28;20041;-73
2022/05/24 09:38:37;;;;;;;9.50;4.50;;;16.10;99.90;;;;;;5054915;28;20048;-74
2022/05/24 09:41:18;;;;;;;2.45;0.90;;;15.70;99.90;;;;;;5048594;28;20044;-74
2022/05/24 09:44:01;;;;;;;2.37;0.83;;;15.30;99.90;;;;;;5051787;28;20060;-74
2022/05/24 09:46:28;;;;;;;6.35;1.20;;;14.90;99.90;;;;;;5052691;28;20036;-74
2022/05/24 09:49:00;;;;;;;2.40;0.82;;;14.70;99.90;;;;;;5053938;28;20067;-74
2022/05/24 09:51:40;;;;;;;4.40;1.00;;;14.40;99.90;;;;;;5053682;28;20068;-74
2022/05/24 09:54:20;;;;;;;3.13;1.00;;;14.10;99.90;;;;;;5055356;28;20091;-74
2022/05/24 09:57:00;;;;;;;3.38;1.08;;;14.00;99.90;;;;;;5053216;28;20046;-75
2022/05/24 09:59:28;;;;;;;2.10;1.20;;;13.90;99.90;;;;;;5039024;28;20501;-75
2022/05/24 10:01:54;;;;;;;2.95;1.40;;;13.90;99.90;;;;;;5053758;28;20112;-75
2022/05/24 10:04:32;;;;;;;3.50;1.65;;;14.00;99.90;;;;;;5053768;28;20442;-75
2022/05/24 10:07:06;;;;;;;3.88;2.00;;;14.10;99.90;;;;;;5047415;28;20098;-75
2022/05/24 10:09:45;;;;;;;4.05;1.95;;;14.20;99.90;;;;;;5018930;28;20079;-75
2022/05/24 10:12:22;;;;;;;4.50;1.90;;;14.30;99.90;;;;;;5054091;28;20094;-75
2022/05/24 10:14:56;;;;;;;5.30;2.70;;;14.50;99.90;;;;;;5048203;28;20389;-75
2022/05/24 10:17:41;;;;;;;6.15;2.60;;;14.70;99.90;;;;;;5049724;28;20041;-74
2022/05/24 10:20:07;;;;;;;5.88;2.83;;;14.90;99.90;;;;;;5051218;28;20048;-74
2022/05/24 10:22:58;;;;;;;7.22;2.83;;;15.00;99.90;;;;;;5052154;28;20099;-75
2022/05/24 10:25:36;;;;;;;7.22;3.60;;;14.90;99.90;;;;;;5049089;28;20057;-74
2022/05/24 10:28:20;;;;;;;7.55;3.42;;;14.90;99.90;;;;;;5053690;28;20549;-74
2022/05/24 10:31:05;;;;;;;9.55;4.03;;;15.00;99.90;;;;;;5046736;28;20033;-74
2022/05/24 10:39:45;;;;;;;6.55;1.30;;;15.10;99.90;;;;;;5043548;28;20128;-75
2022/05/24 10:42:31;;;;;;;3.45;0.80;;;14.50;99.90;;;;;;5054682;28;20120;-74
2022/05/24 10:45:07;;;;;;;8.10;0.88;;;14.30;99.90;;;;;;5044999;28;20029;-74
2022/05/24 10:47:58;;;;;;;4.63;1.05;;;14.00;99.90;;;;;;5052278;28;20041;-73
2022/05/24 10:50:44;;;;;;;3.35;0.70;;;14.00;99.90;;;;;;5051463;28;20412;-74
2022/05/24 10:53:17;;;;;;;2.25;0.77;;;13.90;99.90;;;;;;5050311;28;20044;-74
2022/05/24 10:55:50;;;;;;;3.95;0.90;;;13.70;99.90;;;;;;5049173;28;20520;-74
2022/05/24 10:58:17;;;;;;;3.00;0.95;;;13.70;99.90;;;;;;5051820;28;20041;-74
2022/05/24 11:00:48;;;;;;;2.13;0.70;;;13.70;99.90;;;;;;5036391;28;20099;-73
2022/05/24 11:03:18;;;;;;;1.73;0.70;;;13.70;99.90;;;;;;5049588;28;20053;-73
2022/05/24 11:06:25;;;;;;;3.17;0.80;;;13.70;99.90;;;;;;5051311;28;20033;-73
2022/05/24 11:09:00;;;;;;;3.65;1.00;;;13.70;99.90;;;;;;5029944;28;20048;-73
2022/05/24 11:11:54;;;;;;;2.67;0.80;;;13.80;99.90;;;;;;5053201;28;20049;-73
2022/05/24 11:14:35;;;;;;;4.15;1.25;;;13.90;99.90;;;;;;5044178;28;20098;-73
2022/05/24 11:17:01;;;;;;;2.35;1.13;;;13.90;99.90;;;;;;5050661;28;20044;-73
2022/05/24 11:19:36;;;;;;;4.07;1.45;;;13.90;99.90;;;;;;5035533;28;20210;-73
2022/05/24 11:22:31;;;;;;;4.07;1.33;;;14.00;99.90;;;;;;5053145;28;20068;-73
2022/05/24 11:25:02;;;;;;;4.82;1.70;;;14.10;99.90;;;;;;5040492;28;20037;-72
2022/05/24 11:27:40;;;;;;;3.53;1.70;;;14.10;99.90;;;;;;5036006;28;20045;-73
2022/05/24 11:30:36;;;;;;;5.22;1.90;;;14.10;99.90;;;;;;5047964;28;20430;-73
2022/05/24 11:33:05;;;;;;;4.80;2.20;;;14.10;99.90;;;;;;5041836;28;20042;-73
2022/05/24 11:35:40;;;;;;;5.13;2.20;;;14.30;99.90;;;;;;5042854;28;20045;-73
2022/05/24 11:38:20;;;;;;;6.82;2.78;;;14.30;99.90;;;;;;5050980;28;20048;-73
2022/05/24 11:40:54;;;;;;;5.28;2.70;;;14.50;99.90;;;;;;5051360;28;20083;-73
2022/05/24 11:43:35;;;;;;;5.68;2.50;;;14.60;99.90;;;;;;5037440;28;20041;-73
2022/05/24 11:46:19;;;;;;;5.05;2.45;;;14.70;99.90;;;;;;5049666;28;20118;-73
2022/05/24 11:48:52;;;;;;;6.38;2.45;;;14.80;99.90;;;;;;5053268;28;20044;-73
2022/05/24 11:51:41;;;;;;;6.18;2.83;;;14.80;99.90;;;;;;5032519;28;20059;-73
2022/05/24 11:54:16;;;;;;;6.60;2.72;;;14.80;99.90;;;;;;5051743;28;20496;-73
2022/05/24 11:57:02;;;;;;;4.55;2.25;;;14.90;99.90;;;;;;5052389;28;20041;-73
2022/05/24 11:59:40;;;;;;;5.35;2.28;;;15.20;99.90;;;;;;5042004;28;20090;-73
2022/05/24 12:02:20;;;;;;;4.90;1.95;;;15.40;99.90;;;;;;5052239;28;20133;-73
2022/05/24 12:08:02;;;;;;;4.75;2.10;;;15.60;99.90;;;;;;5051449;28;20049;-74
2022/05/24 12:10:46;;;;;;;3.78;1.88;;;15.40;99.90;;;;;;5049404;28;20041;-74
2022/05/24 12:13:30;;;;;;;4.05;1.60;;;15.50;99.90;;;;;;5048043;28;20041;-73
2022/05/24 12:15:59;;;;;;;4.57;1.60;;;15.50;99.90;;;;;;5040020;28;20477;-73
2022/05/24 12:18:39;;;;;;;2.97;1.63;;;15.40;99.90;;;;;;5050693;28;20084;-73
2022/05/24 12:21:05;;;;;;;3.33;1.60;;;15.40;99.90;;;;;;5031664;28;20056;-73
2022/05/24 12:23:30;;;;;;;3.83;1.35;;;15.30;99.90;;;;;;5042087;28;20034;-74
2022/05/24 12:26:03;;;;;;;6.03;1.40;;;15.00;99.90;;;;;;5043281;28;20504;-74
2022/05/24 12:28:34;;;;;;;3.75;1.10;;;15.00;99.90;;;;;;5049334;28;20041;-74
2022/05/24 12:31:01;;;;;;;3.65;1.60;;;15.10;99.90;;;;;;5050973;28;20090;-74
2022/05/24 12:33:49;;;;;;;3.15;1.40;;;15.00;99.90;;;;;;5034652;28;20045;-74
2022/05/24 12:36:23;;;;;;;2.70;1.10;;;15.00;99.90;;;;;;5035047;28;20071;-73
2022/05/24 12:38:57;;;;;;;3.60;1.00;;;14.80;99.90;;;;;;5050979;28;20098;-74
2022/05/24 12:41:28;;;;;;;2.85;1.10;;;14.80;99.90;;;;;;5052677;28;20120;-74
2022/05/24 12:44:01;;;;;;;3.88;1.23;;;14.80;99.90;;;;;;5032995;28;20045;-74
2022/05/24 12:46:33;;;;;;;4.53;1.25;;;15.00;99.90;;;;;;5031627;28;20037;-74
2022/05/24 12:49:08;;;;;;;3.65;1.00;;;14.90;99.90;;;;;;5039140;28;20045;-71
2022/05/24 12:51:34;;;;;;;3.15;0.70;;;14.80;99.90;;;;;;5031213;28;20164;-72
2022/05/24 12:54:14;;;;;;;1.00;0.60;;;14.40;99.90;;;;;;5047865;28;20384;-72
2022/05/24 12:56:39;;;;;;;3.08;0.95;;;14.30;99.90;;;;;;5032145;28;20042;-72
2022/05/24 12:59:11;;;;;;;3.20;0.75;;;14.30;99.90;;;;;;5048350;28;20490;-71
2022/05/24 13:01:41;;;;;;;2.60;0.80;;;14.30;99.90;;;;;;5050722;28;20132;-71
2022/05/24 13:04:27;;;;;;;2.60;0.80;;;14.30;99.90;;;;;;5049949;28;20505;-71
2022/05/24 13:06:53;;;;;;;2.60;1.05;;;14.40;99.90;;;;;;5051278;28;20029;-71
2022/05/24 13:09:32;;;;;;;4.43;1.08;;;14.40;99.90;;;;;;5052861;28;20037;-71
2022/05/24 13:12:08;;;;;;;4.68;1.30;;;14.60;99.90;;;;;;5055720;28;20508;-71
2022/05/24 13:14:52;;;;;;;5.40;1.30;;;14.70;99.90;;;;;;5056055;28;20523;-71
2022/05/24 13:17:21;;;;;;;3.17;1.40;;;14.70;99.90;;;;;;5054534;28;20033;-71
2022/05/24 13:20:07;;;;;;;3.15;1.40;;;14.90;99.90;;;;;;5054294;28;20045;-72
2022/05/24 13:22:45;;;;;;;5.43;1.77;;;15.10;99.90;;;;;;5053559;28;20041;-71
2022/05/24 13:25:20;;;;;;;4.45;1.50;;;15.10;99.90;;;;;;5034115;28;20034;-71
2022/05/24 13:27:58;;;;;;;7.50;1.80;;;15.10;99.90;;;;;;5036851;28;20039;-72
2022/05/24 13:33:45;;;;;;;4.80;1.70;;;15.10;99.90;;;;;;5047266;28;20049;-71
2022/05/24 13:36:15;;;;;;;4.60;1.52;;;15.10;99.90;;;;;;5048775;28;20037;-71
2022/05/24 13:38:42;;;;;;;3.30;1.50;;;14.90;99.90;;;;;;5038697;28;20810;-71
2022/05/24 13:41:09;;;;;;;5.75;1.75;;;14.70;99.90;;;;;;5045802;28;20381;-71